sensor_id;sensor_type;location;lat;lon;timestamp;P1;durP1;ratioP1;P2;durP2;ratioP2
43311;SDS011;30041;48.300;16.352;2023-09-19T00:00:40;1.52;;;0.65;;
43311;SDS011;30041;48.300;16.352;2023-09-19T00:03:21;1.30;;;0.50;;
43311;SDS011;30041;48.300;16.352;2023-09-19T00:05:47;1.63;;;0.60;;
43311;SDS011;30041;48.300;16.352;2023-09-19T00:08:18;1.77;;;0.60;;
43311;SDS011;30041;48.300;16.352;2023-09-19T00:10:53;2.20;;;0.70;;
43311;SDS011;30041;48.300;16.352;2023-09-19T00:13:24;1.42;;;0.50;;
43311;SDS011;30041;48.300;16.352;2023-09-19T00:15:50;0.98;;;0.57;;
43311;SDS011;30041;48.300;16.352;2023-09-19T00:18:23;2.13;;;0.60;;
43311;SDS011;30041;48.300;16.352;2023-09-19T00:20:50;1.63;;;0.55;;
43311;SDS011;30041;48.300;16.352;2023-09-19T00:23:17;1.85;;;0.60;;
43311;SDS011;30041;48.300;16.352;2023-09-19T00:25:44;0.90;;;0.40;;
43311;SDS011;30041;48.300;16.352;2023-09-19T00:28:11;1.70;;;0.60;;
43311;SDS011;30041;48.300;16.352;2023-09-19T00:30:38;1.35;;;0.52;;
43311;SDS011;30041;48.300;16.352;2023-09-19T00:33:11;1.75;;;0.50;;
43311;SDS011;30041;48.300;16.352;2023-09-19T00:35:52;0.85;;;0.43;;
43311;SDS011;30041;48.300;16.352;2023-09-19T00:38:28;1.35;;;0.40;;
43311;SDS011;30041;48.300;16.352;2023-09-19T00:40:59;2.33;;;0.40;;
43311;SDS011;30041;48.300;16.352;2023-09-19T00:43:26;1.85;;;0.68;;
43311;SDS011;30041;48.300;16.352;2023-09-19T00:45:54;1.42;;;0.43;;
43311;SDS011;30041;48.300;16.352;2023-09-19T00:48:22;1.15;;;0.47;;
43311;SDS011;30041;48.300;16.352;2023-09-19T00:50:52;0.88;;;0.40;;
43311;SDS011;30041;48.300;16.352;2023-09-19T00:53:23;1.00;;;0.50;;
43311;SDS011;30041;48.300;16.352;2023-09-19T00:55:50;0.73;;;0.47;;
43311;SDS011;30041;48.300;16.352;2023-09-19T00:58:20;1.05;;;0.50;;
43311;SDS011;30041;48.300;16.352;2023-09-19T01:01:01;0.75;;;0.40;;
43311;SDS011;30041;48.300;16.352;2023-09-19T01:03:30;1.63;;;0.50;;
43311;SDS011;30041;48.300;16.352;2023-09-19T01:06:01;1.48;;;0.50;;
43311;SDS011;30041;48.300;16.352;2023-09-19T01:08:36;1.02;;;0.50;;
43311;SDS011;30041;48.300;16.352;2023-09-19T01:11:10;1.85;;;0.50;;
43311;SDS011;30041;48.300;16.352;2023-09-19T01:29:01;2.50;;;0.50;;
43311;SDS011;30041;48.300;16.352;2023-09-19T01:31:59;0.73;;;0.40;;
43311;SDS011;30041;48.300;16.352;2023-09-19T01:37:15;1.05;;;0.38;;
43311;SDS011;30041;48.300;16.352;2023-09-19T01:39:42;1.25;;;0.40;;
43311;SDS011;30041;48.300;16.352;2023-09-19T01:42:19;1.38;;;0.60;;
43311;SDS011;30041;48.300;16.352;2023-09-19T01:47:55;0.77;;;0.40;;
43311;SDS011;30041;48.300;16.352;2023-09-19T01:50:42;0.93;;;0.40;;
43311;SDS011;30041;48.300;16.352;2023-09-19T01:53:28;1.35;;;0.50;;
43311;SDS011;30041;48.300;16.352;2023-09-19T01:56:16;0.93;;;0.30;;
43311;SDS011;30041;48.300;16.352;2023-09-19T01:58:51;1.25;;;0.38;;
43311;SDS011;30041;48.300;16.352;2023-09-19T02:01:25;0.77;;;0.40;;
43311;SDS011;30041;48.300;16.352;2023-09-19T02:04:02;0.52;;;0.45;;
43311;SDS011;30041;48.300;16.352;2023-09-19T02:09:13;1.25;;;0.50;;
43311;SDS011;30041;48.300;16.352;2023-09-19T02:11:49;2.17;;;0.50;;
43311;SDS011;30041;48.300;16.352;2023-09-19T02:14:15;2.35;;;0.47;;
43311;SDS011;30041;48.300;16.352;2023-09-19T02:16:43;1.48;;;0.45;;
43311;SDS011;30041;48.300;16.352;2023-09-19T02:19:11;0.70;;;0.38;;
43311;SDS011;30041;48.300;16.352;2023-09-19T02:21:40;2.13;;;0.40;;
43311;SDS011;30041;48.300;16.352;2023-09-19T02:24:08;1.25;;;0.52;;
43311;SDS011;30041;48.300;16.352;2023-09-19T02:26:41;1.15;;;0.50;;
43311;SDS011;30041;48.300;16.352;2023-09-19T02:29:08;1.67;;;0.60;;
43311;SDS011;30041;48.300;16.352;2023-09-19T02:31:39;2.58;;;0.47;;
43311;SDS011;30041;48.300;16.352;2023-09-19T02:34:05;2.50;;;0.60;;
43311;SDS011;30041;48.300;16.352;2023-09-19T02:36:34;1.00;;;0.40;;
43311;SDS011;30041;48.300;16.352;2023-09-19T02:39:02;0.80;;;0.50;;
43311;SDS011;30041;48.300;16.352;2023-09-19T02:41:41;1.20;;;0.40;;
43311;SDS011;30041;48.300;16.352;2023-09-19T02:44:10;0.90;;;0.47;;
43311;SDS011;30041;48.300;16.352;2023-09-19T02:46:37;1.30;;;0.52;;
43311;SDS011;30041;48.300;16.352;2023-09-19T02:49:16;1.33;;;0.35;;
43311;SDS011;30041;48.300;16.352;2023-09-19T02:51:43;0.68;;;0.40;;
43311;SDS011;30041;48.300;16.352;2023-09-19T02:54:16;0.70;;;0.30;;
43311;SDS011;30041;48.300;16.352;2023-09-19T02:56:44;2.38;;;0.40;;
43311;SDS011;30041;48.300;16.352;2023-09-19T02:59:14;0.60;;;0.40;;
43311;SDS011;30041;48.300;16.352;2023-09-19T03:01:43;0.85;;;0.50;;
43311;SDS011;30041;48.300;16.352;2023-09-19T03:04:12;0.20;;;0.20;;
43311;SDS011;30041;48.300;16.352;2023-09-19T03:06:39;1.58;;;0.40;;
43311;SDS011;30041;48.300;16.352;2023-09-19T03:09:06;0.85;;;0.40;;
43311;SDS011;30041;48.300;16.352;2023-09-19T03:11:38;0.85;;;0.32;;
43311;SDS011;30041;48.300;16.352;2023-09-19T03:14:16;1.60;;;0.40;;
43311;SDS011;30041;48.300;16.352;2023-09-19T03:16:44;1.27;;;0.30;;
43311;SDS011;30041;48.300;16.352;2023-09-19T03:19:11;1.20;;;0.47;;
43311;SDS011;30041;48.300;16.352;2023-09-19T03:21:49;0.35;;;0.30;;
43311;SDS011;30041;48.300;16.352;2023-09-19T03:24:22;0.90;;;0.40;;
43311;SDS011;30041;48.300;16.352;2023-09-19T03:26:50;0.65;;;0.28;;
43311;SDS011;30041;48.300;16.352;2023-09-19T03:29:23;1.10;;;0.35;;
43311;SDS011;30041;48.300;16.352;2023-09-19T03:31:52;2.70;;;0.50;;
43311;SDS011;30041;48.300;16.352;2023-09-19T03:34:20;0.82;;;0.40;;
43311;SDS011;30041;48.300;16.352;2023-09-19T03:36:46;0.73;;;0.30;;
43311;SDS011;30041;48.300;16.352;2023-09-19T03:39:17;3.10;;;0.52;;
43311;SDS011;30041;48.300;16.352;2023-09-19T03:41:44;1.23;;;0.63;;
43311;SDS011;30041;48.300;16.352;2023-09-19T03:44:10;1.38;;;0.60;;
43311;SDS011;30041;48.300;16.352;2023-09-19T03:46:37;4.65;;;0.70;;
43311;SDS011;30041;48.300;16.352;2023-09-19T03:49:04;1.33;;;0.50;;
43311;SDS011;30041;48.300;16.352;2023-09-19T03:51:34;0.82;;;0.40;;
43311;SDS011;30041;48.300;16.352;2023-09-19T03:54:01;1.02;;;0.40;;
43311;SDS011;30041;48.300;16.352;2023-09-19T03:56:28;2.50;;;0.50;;
43311;SDS011;30041;48.300;16.352;2023-09-19T03:58:55;4.10;;;0.73;;
43311;SDS011;30041;48.300;16.352;2023-09-19T04:01:24;4.93;;;0.90;;
43311;SDS011;30041;48.300;16.352;2023-09-19T04:03:51;4.53;;;0.70;;
43311;SDS011;30041;48.300;16.352;2023-09-19T04:06:18;2.65;;;0.90;;
43311;SDS011;30041;48.300;16.352;2023-09-19T04:08:49;2.30;;;0.70;;
43311;SDS011;30041;48.300;16.352;2023-09-19T04:11:22;3.95;;;0.95;;
43311;SDS011;30041;48.300;16.352;2023-09-19T04:13:52;4.20;;;0.90;;
43311;SDS011;30041;48.300;16.352;2023-09-19T04:16:21;3.08;;;1.00;;
43311;SDS011;30041;48.300;16.352;2023-09-19T04:18:49;4.20;;;0.82;;
43311;SDS011;30041;48.300;16.352;2023-09-19T04:21:16;3.42;;;0.73;;
43311;SDS011;30041;48.300;16.352;2023-09-19T04:23:50;3.90;;;0.80;;
43311;SDS011;30041;48.300;16.352;2023-09-19T04:26:18;2.60;;;0.93;;
43311;SDS011;30041;48.300;16.352;2023-09-19T04:28:46;2.33;;;0.80;;
43311;SDS011;30041;48.300;16.352;2023-09-19T04:31:13;3.08;;;0.80;;
43311;SDS011;30041;48.300;16.352;2023-09-19T04:33:40;2.05;;;0.88;;
43311;SDS011;30041;48.300;16.352;2023-09-19T04:36:09;3.22;;;0.68;;
43311;SDS011;30041;48.300;16.352;2023-09-19T04:38:41;2.75;;;0.80;;
43311;SDS011;30041;48.300;16.352;2023-09-19T04:41:18;2.03;;;0.85;;
43311;SDS011;30041;48.300;16.352;2023-09-19T04:44:07;2.08;;;0.80;;
43311;SDS011;30041;48.300;16.352;2023-09-19T04:46:44;3.13;;;0.80;;
43311;SDS011;30041;48.300;16.352;2023-09-19T04:49:15;1.95;;;0.70;;
43311;SDS011;30041;48.300;16.352;2023-09-19T04:51:45;1.90;;;1.00;;
43311;SDS011;30041;48.300;16.352;2023-09-19T04:54:14;4.38;;;0.80;;
43311;SDS011;30041;48.300;16.352;2023-09-19T04:56:50;3.25;;;0.80;;
43311;SDS011;30041;48.300;16.352;2023-09-19T05:01:44;6.80;;;0.90;;
43311;SDS011;30041;48.300;16.352;2023-09-19T05:04:11;6.88;;;1.10;;
43311;SDS011;30041;48.300;16.352;2023-09-19T05:06:39;4.65;;;0.90;;
43311;SDS011;30041;48.300;16.352;2023-09-19T05:09:07;6.70;;;1.10;;
43311;SDS011;30041;48.300;16.352;2023-09-19T05:11:34;5.80;;;1.02;;
43311;SDS011;30041;48.300;16.352;2023-09-19T05:14:01;2.38;;;0.90;;
43311;SDS011;30041;48.300;16.352;2023-09-19T05:16:31;5.30;;;1.00;;
43311;SDS011;30041;48.300;16.352;2023-09-19T05:18:59;3.30;;;1.05;;
43311;SDS011;30041;48.300;16.352;2023-09-19T05:21:36;3.53;;;1.00;;
43311;SDS011;30041;48.300;16.352;2023-09-19T05:24:07;5.25;;;1.08;;
43311;SDS011;30041;48.300;16.352;2023-09-19T05:26:42;6.13;;;1.38;;
43311;SDS011;30041;48.300;16.352;2023-09-19T05:29:10;6.13;;;1.00;;
43311;SDS011;30041;48.300;16.352;2023-09-19T05:31:37;3.78;;;1.17;;
43311;SDS011;30041;48.300;16.352;2023-09-19T05:34:11;2.85;;;1.08;;
43311;SDS011;30041;48.300;16.352;2023-09-19T05:36:38;3.90;;;1.20;;
43311;SDS011;30041;48.300;16.352;2023-09-19T05:39:05;6.88;;;1.40;;
43311;SDS011;30041;48.300;16.352;2023-09-19T05:41:36;6.35;;;1.42;;
43311;SDS011;30041;48.300;16.352;2023-09-19T05:44:06;17.40;;;2.53;;
43311;SDS011;30041;48.300;16.352;2023-09-19T05:46:32;17.40;;;2.38;;
43311;SDS011;30041;48.300;16.352;2023-09-19T05:49:08;11.25;;;2.15;;
43311;SDS011;30041;48.300;16.352;2023-09-19T05:51:44;15.27;;;2.70;;
43311;SDS011;30041;48.300;16.352;2023-09-19T05:54:14;14.32;;;3.13;;
43311;SDS011;30041;48.300;16.352;2023-09-19T05:56:45;12.40;;;3.10;;
43311;SDS011;30041;48.300;16.352;2023-09-19T05:59:15;8.63;;;2.38;;
43311;SDS011;30041;48.300;16.352;2023-09-19T06:01:47;11.07;;;2.28;;
43311;SDS011;30041;48.300;16.352;2023-09-19T06:04:21;7.88;;;1.83;;
43311;SDS011;30041;48.300;16.352;2023-09-19T06:06:52;5.28;;;2.00;;
43311;SDS011;30041;48.300;16.352;2023-09-19T06:09:22;4.97;;;1.48;;
43311;SDS011;30041;48.300;16.352;2023-09-19T06:11:49;4.50;;;1.55;;
43311;SDS011;30041;48.300;16.352;2023-09-19T06:14:16;6.10;;;1.63;;
43311;SDS011;30041;48.300;16.352;2023-09-19T06:16:47;4.95;;;1.73;;
43311;SDS011;30041;48.300;16.352;2023-09-19T06:19:17;4.97;;;1.50;;
43311;SDS011;30041;48.300;16.352;2023-09-19T06:21:47;6.38;;;1.83;;
43311;SDS011;30041;48.300;16.352;2023-09-19T06:24:26;8.18;;;1.48;;
43311;SDS011;30041;48.300;16.352;2023-09-19T06:26:52;5.63;;;1.40;;
43311;SDS011;30041;48.300;16.352;2023-09-19T06:29:21;5.15;;;1.70;;
43311;SDS011;30041;48.300;16.352;2023-09-19T06:31:49;7.53;;;1.50;;
43311;SDS011;30041;48.300;16.352;2023-09-19T06:34:23;4.45;;;1.40;;
43311;SDS011;30041;48.300;16.352;2023-09-19T06:36:51;6.22;;;1.63;;
43311;SDS011;30041;48.300;16.352;2023-09-19T06:39:23;6.97;;;1.80;;
43311;SDS011;30041;48.300;16.352;2023-09-19T06:41:54;3.25;;;1.40;;
43311;SDS011;30041;48.300;16.352;2023-09-19T06:44:20;4.80;;;1.55;;
43311;SDS011;30041;48.300;16.352;2023-09-19T06:46:47;3.88;;;1.40;;
43311;SDS011;30041;48.300;16.352;2023-09-19T06:49:13;4.50;;;1.67;;
43311;SDS011;30041;48.300;16.352;2023-09-19T06:51:40;5.07;;;1.50;;
43311;SDS011;30041;48.300;16.352;2023-09-19T06:54:06;4.95;;;1.60;;
43311;SDS011;30041;48.300;16.352;2023-09-19T06:56:38;4.57;;;1.50;;
43311;SDS011;30041;48.300;16.352;2023-09-19T06:59:05;3.92;;;1.40;;
43311;SDS011;30041;48.300;16.352;2023-09-19T07:01:35;5.65;;;1.77;;
43311;SDS011;30041;48.300;16.352;2023-09-19T07:04:03;2.67;;;1.17;;
43311;SDS011;30041;48.300;16.352;2023-09-19T07:06:33;4.57;;;1.20;;
43311;SDS011;30041;48.300;16.352;2023-09-19T07:09:01;4.35;;;1.50;;
43311;SDS011;30041;48.300;16.352;2023-09-19T07:11:31;4.32;;;1.45;;
43311;SDS011;30041;48.300;16.352;2023-09-19T07:13:58;3.80;;;1.52;;
43311;SDS011;30041;48.300;16.352;2023-09-19T07:16:25;3.42;;;1.40;;
43311;SDS011;30041;48.300;16.352;2023-09-19T07:18:53;3.70;;;1.40;;
43311;SDS011;30041;48.300;16.352;2023-09-19T07:21:19;2.85;;;1.38;;
43311;SDS011;30041;48.300;16.352;2023-09-19T07:23:47;5.20;;;1.33;;
43311;SDS011;30041;48.300;16.352;2023-09-19T07:26:13;4.00;;;1.50;;
43311;SDS011;30041;48.300;16.352;2023-09-19T07:28:43;3.65;;;1.35;;
43311;SDS011;30041;48.300;16.352;2023-09-19T07:31:15;2.97;;;1.50;;
43311;SDS011;30041;48.300;16.352;2023-09-19T07:33:41;3.30;;;1.40;;
43311;SDS011;30041;48.300;16.352;2023-09-19T07:36:15;4.25;;;1.45;;
43311;SDS011;30041;48.300;16.352;2023-09-19T07:38:45;2.00;;;1.15;;
43311;SDS011;30041;48.300;16.352;2023-09-19T07:41:12;4.00;;;1.30;;
43311;SDS011;30041;48.300;16.352;2023-09-19T07:43:38;2.97;;;1.42;;
43311;SDS011;30041;48.300;16.352;2023-09-19T07:46:05;3.13;;;1.35;;
43311;SDS011;30041;48.300;16.352;2023-09-19T07:48:32;3.85;;;1.45;;
43311;SDS011;30041;48.300;16.352;2023-09-19T07:51:06;4.38;;;1.33;;
43311;SDS011;30041;48.300;16.352;2023-09-19T07:53:33;3.15;;;1.30;;
43311;SDS011;30041;48.300;16.352;2023-09-19T07:56:06;2.85;;;1.20;;
43311;SDS011;30041;48.300;16.352;2023-09-19T07:58:35;3.15;;;1.38;;
43311;SDS011;30041;48.300;16.352;2023-09-19T08:01:07;3.30;;;1.30;;
43311;SDS011;30041;48.300;16.352;2023-09-19T08:03:37;3.13;;;1.33;;
43311;SDS011;30041;48.300;16.352;2023-09-19T08:06:10;5.43;;;1.20;;
43311;SDS011;30041;48.300;16.352;2023-09-19T08:08:37;4.22;;;1.50;;
43311;SDS011;30041;48.300;16.352;2023-09-19T08:11:03;3.95;;;1.30;;
43311;SDS011;30041;48.300;16.352;2023-09-19T08:13:31;2.78;;;1.30;;
43311;SDS011;30041;48.300;16.352;2023-09-19T08:16:02;3.08;;;1.50;;
43311;SDS011;30041;48.300;16.352;2023-09-19T08:18:30;4.57;;;1.67;;
43311;SDS011;30041;48.300;16.352;2023-09-19T08:20:56;3.22;;;1.45;;
43311;SDS011;30041;48.300;16.352;2023-09-19T08:23:23;4.32;;;1.27;;
43311;SDS011;30041;48.300;16.352;2023-09-19T08:25:49;6.10;;;1.50;;
43311;SDS011;30041;48.300;16.352;2023-09-19T08:28:23;3.15;;;1.50;;
43311;SDS011;30041;48.300;16.352;2023-09-19T08:30:50;3.33;;;1.45;;
43311;SDS011;30041;48.300;16.352;2023-09-19T08:33:16;7.63;;;1.42;;
43311;SDS011;30041;48.300;16.352;2023-09-19T08:35:43;13.02;;;2.00;;
43311;SDS011;30041;48.300;16.352;2023-09-19T08:38:10;6.32;;;1.65;;
43311;SDS011;30041;48.300;16.352;2023-09-19T08:40:37;5.90;;;1.55;;
43311;SDS011;30041;48.300;16.352;2023-09-19T08:43:04;7.43;;;1.30;;
43311;SDS011;30041;48.300;16.352;2023-09-19T08:45:31;4.43;;;1.45;;
43311;SDS011;30041;48.300;16.352;2023-09-19T08:56:32;3.85;;;1.38;;
43311;SDS011;30041;48.300;16.352;2023-09-19T08:59:02;5.55;;;1.52;;
43311;SDS011;30041;48.300;16.352;2023-09-19T09:01:35;6.13;;;1.50;;
43311;SDS011;30041;48.300;16.352;2023-09-19T09:04:03;5.53;;;1.73;;
43311;SDS011;30041;48.300;16.352;2023-09-19T09:06:33;2.40;;;1.20;;
43311;SDS011;30041;48.300;16.352;2023-09-19T09:09:01;3.45;;;1.40;;
43311;SDS011;30041;48.300;16.352;2023-09-19T09:11:28;4.45;;;1.40;;
43311;SDS011;30041;48.300;16.352;2023-09-19T09:13:58;3.88;;;1.40;;
43311;SDS011;30041;48.300;16.352;2023-09-19T09:16:24;3.33;;;1.50;;
43311;SDS011;30041;48.300;16.352;2023-09-19T09:18:55;3.13;;;1.38;;
43311;SDS011;30041;48.300;16.352;2023-09-19T09:21:30;2.92;;;1.30;;
43311;SDS011;30041;48.300;16.352;2023-09-19T09:23:57;3.80;;;1.38;;
43311;SDS011;30041;48.300;16.352;2023-09-19T09:26:44;4.00;;;1.40;;
43311;SDS011;30041;48.300;16.352;2023-09-19T09:29:11;3.03;;;1.40;;
43311;SDS011;30041;48.300;16.352;2023-09-19T09:31:38;3.47;;;1.30;;
43311;SDS011;30041;48.300;16.352;2023-09-19T09:34:08;2.08;;;1.20;;
43311;SDS011;30041;48.300;16.352;2023-09-19T09:36:37;2.35;;;1.10;;
43311;SDS011;30041;48.300;16.352;2023-09-19T09:39:08;3.35;;;1.30;;
43311;SDS011;30041;48.300;16.352;2023-09-19T09:41:40;2.13;;;1.20;;
43311;SDS011;30041;48.300;16.352;2023-09-19T09:44:13;3.45;;;1.23;;
43311;SDS011;30041;48.300;16.352;2023-09-19T09:46:47;1.92;;;1.25;;
43311;SDS011;30041;48.300;16.352;2023-09-19T09:49:18;3.33;;;1.45;;
43311;SDS011;30041;48.300;16.352;2023-09-19T09:51:50;3.83;;;1.15;;
43311;SDS011;30041;48.300;16.352;2023-09-19T09:54:36;4.28;;;1.35;;
43311;SDS011;30041;48.300;16.352;2023-09-19T09:57:06;3.35;;;1.20;;
43311;SDS011;30041;48.300;16.352;2023-09-19T09:59:52;3.30;;;1.20;;
43311;SDS011;30041;48.300;16.352;2023-09-19T10:02:34;1.85;;;1.13;;
43311;SDS011;30041;48.300;16.352;2023-09-19T10:05:25;2.45;;;1.40;;
43311;SDS011;30041;48.300;16.352;2023-09-19T10:07:53;3.35;;;1.20;;
43311;SDS011;30041;48.300;16.352;2023-09-19T10:13:02;2.80;;;1.25;;
43311;SDS011;30041;48.300;16.352;2023-09-19T10:15:31;2.20;;;1.02;;
43311;SDS011;30041;48.300;16.352;2023-09-19T10:18:01;2.85;;;1.27;;
43311;SDS011;30041;48.300;16.352;2023-09-19T10:20:31;3.08;;;1.23;;
43311;SDS011;30041;48.300;16.352;2023-09-19T10:23:03;3.83;;;1.27;;
43311;SDS011;30041;48.300;16.352;2023-09-19T10:25:40;2.88;;;1.10;;
43311;SDS011;30041;48.300;16.352;2023-09-19T10:28:10;4.22;;;1.20;;
43311;SDS011;30041;48.300;16.352;2023-09-19T10:30:46;2.22;;;1.13;;
43311;SDS011;30041;48.300;16.352;2023-09-19T10:33:17;2.75;;;1.10;;
43311;SDS011;30041;48.300;16.352;2023-09-19T10:35:48;3.70;;;1.10;;
43311;SDS011;30041;48.300;16.352;2023-09-19T10:38:18;2.38;;;1.17;;
43311;SDS011;30041;48.300;16.352;2023-09-19T10:40:57;3.35;;;1.30;;
43311;SDS011;30041;48.300;16.352;2023-09-19T10:43:32;2.15;;;1.10;;
43311;SDS011;30041;48.300;16.352;2023-09-19T10:46:18;1.95;;;1.10;;
43311;SDS011;30041;48.300;16.352;2023-09-19T10:48:50;3.33;;;1.20;;
43311;SDS011;30041;48.300;16.352;2023-09-19T10:51:27;1.88;;;1.00;;
43311;SDS011;30041;48.300;16.352;2023-09-19T10:57:20;1.45;;;0.98;;
43311;SDS011;30041;48.300;16.352;2023-09-19T11:06:30;1.98;;;0.80;;
43311;SDS011;30041;48.300;16.352;2023-09-19T11:09:18;1.85;;;1.00;;
43311;SDS011;30041;48.300;16.352;2023-09-19T11:11:48;1.67;;;0.98;;
43311;SDS011;30041;48.300;16.352;2023-09-19T11:40:08;1.38;;;0.80;;
43311;SDS011;30041;48.300;16.352;2023-09-19T11:48:44;4.32;;;1.08;;
43311;SDS011;30041;48.300;16.352;2023-09-19T11:51:23;1.10;;;0.80;;
43311;SDS011;30041;48.300;16.352;2023-09-19T11:56:49;1.92;;;1.00;;
43311;SDS011;30041;48.300;16.352;2023-09-19T11:59:22;1.90;;;0.80;;
43311;SDS011;30041;48.300;16.352;2023-09-19T12:01:56;1.77;;;0.90;;
43311;SDS011;30041;48.300;16.352;2023-09-19T12:04:38;2.55;;;0.90;;
43311;SDS011;30041;48.300;16.352;2023-09-19T12:09:52;1.50;;;0.90;;
43311;SDS011;30041;48.300;16.352;2023-09-19T12:12:36;2.00;;;0.85;;
43311;SDS011;30041;48.300;16.352;2023-09-19T12:15:02;1.15;;;0.77;;
43311;SDS011;30041;48.300;16.352;2023-09-19T12:17:41;1.23;;;0.70;;
43311;SDS011;30041;48.300;16.352;2023-09-19T12:20:23;1.38;;;0.80;;
43311;SDS011;30041;48.300;16.352;2023-09-19T12:23:12;1.35;;;0.75;;
43311;SDS011;30041;48.300;16.352;2023-09-19T12:25:42;2.17;;;0.90;;
43311;SDS011;30041;48.300;16.352;2023-09-19T12:28:19;1.17;;;0.70;;
43311;SDS011;30041;48.300;16.352;2023-09-19T12:30:58;1.30;;;0.60;;
43311;SDS011;30041;48.300;16.352;2023-09-19T12:33:35;1.17;;;0.70;;
43311;SDS011;30041;48.300;16.352;2023-09-19T12:36:24;2.17;;;0.70;;
43311;SDS011;30041;48.300;16.352;2023-09-19T12:38:54;1.00;;;0.60;;
43311;SDS011;30041;48.300;16.352;2023-09-19T12:41:22;1.15;;;0.60;;
43311;SDS011;30041;48.300;16.352;2023-09-19T12:43:52;1.55;;;0.73;;
43311;SDS011;30041;48.300;16.352;2023-09-19T12:46:43;1.75;;;0.82;;
43311;SDS011;30041;48.300;16.352;2023-09-19T12:49:25;1.05;;;0.80;;
43311;SDS011;30041;48.300;16.352;2023-09-19T12:52:56;1.70;;;0.90;;
43311;SDS011;30041;48.300;16.352;2023-09-19T12:55:41;1.60;;;0.90;;
43311;SDS011;30041;48.300;16.352;2023-09-19T12:58:25;1.38;;;0.80;;
43311;SDS011;30041;48.300;16.352;2023-09-19T13:06:36;0.85;;;0.70;;
43311;SDS011;30041;48.300;16.352;2023-09-19T13:09:08;1.48;;;0.60;;
43311;SDS011;30041;48.300;16.352;2023-09-19T13:11:44;1.23;;;0.80;;
43311;SDS011;30041;48.300;16.352;2023-09-19T13:14:29;1.55;;;0.70;;
43311;SDS011;30041;48.300;16.352;2023-09-19T13:16:58;2.65;;;0.70;;
43311;SDS011;30041;48.300;16.352;2023-09-19T13:19:47;1.10;;;0.57;;
43311;SDS011;30041;48.300;16.352;2023-09-19T13:25:17;1.50;;;0.82;;
43311;SDS011;30041;48.300;16.352;2023-09-19T13:27:45;1.13;;;0.60;;
43311;SDS011;30041;48.300;16.352;2023-09-19T13:30:15;0.98;;;0.63;;
43311;SDS011;30041;48.300;16.352;2023-09-19T13:32:41;1.80;;;0.70;;
43311;SDS011;30041;48.300;16.352;2023-09-19T13:35:07;1.20;;;0.60;;
43311;SDS011;30041;48.300;16.352;2023-09-19T13:37:33;1.63;;;0.93;;
43311;SDS011;30041;48.300;16.352;2023-09-19T13:39:59;2.60;;;0.60;;
43311;SDS011;30041;48.300;16.352;2023-09-19T13:42:25;0.88;;;0.55;;
43311;SDS011;30041;48.300;16.352;2023-09-19T13:44:51;1.20;;;0.70;;
43311;SDS011;30041;48.300;16.352;2023-09-19T13:47:17;2.28;;;0.80;;
43311;SDS011;30041;48.300;16.352;2023-09-19T13:49:43;1.05;;;0.73;;
43311;SDS011;30041;48.300;16.352;2023-09-19T13:52:09;1.60;;;0.80;;
43311;SDS011;30041;48.300;16.352;2023-09-19T13:54:35;1.17;;;0.73;;
43311;SDS011;30041;48.300;16.352;2023-09-19T13:57:01;1.10;;;0.70;;
43311;SDS011;30041;48.300;16.352;2023-09-19T13:59:27;1.58;;;0.80;;
43311;SDS011;30041;48.300;16.352;2023-09-19T14:01:53;1.33;;;0.60;;
43311;SDS011;30041;48.300;16.352;2023-09-19T14:04:19;0.90;;;0.75;;
43311;SDS011;30041;48.300;16.352;2023-09-19T14:06:46;0.95;;;0.50;;
43311;SDS011;30041;48.300;16.352;2023-09-19T14:09:12;2.13;;;0.73;;
43311;SDS011;30041;48.300;16.352;2023-09-19T14:11:38;1.88;;;0.88;;
43311;SDS011;30041;48.300;16.352;2023-09-19T14:14:07;1.08;;;0.60;;
43311;SDS011;30041;48.300;16.352;2023-09-19T14:16:34;1.50;;;0.77;;
43311;SDS011;30041;48.300;16.352;2023-09-19T14:19:00;1.35;;;0.65;;
43311;SDS011;30041;48.300;16.352;2023-09-19T14:21:26;1.60;;;0.70;;
43311;SDS011;30041;48.300;16.352;2023-09-19T14:23:52;1.38;;;0.60;;
43311;SDS011;30041;48.300;16.352;2023-09-19T14:26:18;0.85;;;0.52;;
43311;SDS011;30041;48.300;16.352;2023-09-19T14:28:44;1.60;;;0.65;;
43311;SDS011;30041;48.300;16.352;2023-09-19T14:31:10;1.10;;;0.80;;
43311;SDS011;30041;48.300;16.352;2023-09-19T14:33:36;2.38;;;0.80;;
43311;SDS011;30041;48.300;16.352;2023-09-19T14:36:03;1.05;;;0.57;;
43311;SDS011;30041;48.300;16.352;2023-09-19T14:38:33;1.52;;;0.70;;
43311;SDS011;30041;48.300;16.352;2023-09-19T14:41:00;0.77;;;0.50;;
43311;SDS011;30041;48.300;16.352;2023-09-19T14:43:27;1.20;;;0.70;;
43311;SDS011;30041;48.300;16.352;2023-09-19T14:45:53;6.72;;;1.70;;
43311;SDS011;30041;48.300;16.352;2023-09-19T14:48:20;6.55;;;1.70;;
43311;SDS011;30041;48.300;16.352;2023-09-19T14:50:46;5.22;;;1.67;;
43311;SDS011;30041;48.300;16.352;2023-09-19T14:53:21;4.03;;;1.33;;
43311;SDS011;30041;48.300;16.352;2023-09-19T14:55:52;6.47;;;1.42;;
43311;SDS011;30041;48.300;16.352;2023-09-19T14:58:19;7.28;;;1.50;;
43311;SDS011;30041;48.300;16.352;2023-09-19T15:00:45;4.07;;;1.60;;
43311;SDS011;30041;48.300;16.352;2023-09-19T15:03:12;1.70;;;1.10;;
43311;SDS011;30041;48.300;16.352;2023-09-19T15:05:38;3.20;;;1.50;;
43311;SDS011;30041;48.300;16.352;2023-09-19T15:08:08;3.92;;;1.42;;
43311;SDS011;30041;48.300;16.352;2023-09-19T15:10:37;3.38;;;1.30;;
43311;SDS011;30041;48.300;16.352;2023-09-19T15:13:10;2.63;;;1.20;;
43311;SDS011;30041;48.300;16.352;2023-09-19T15:15:39;4.72;;;1.50;;
43311;SDS011;30041;48.300;16.352;2023-09-19T15:18:06;3.22;;;1.30;;
43311;SDS011;30041;48.300;16.352;2023-09-19T15:20:33;4.25;;;1.30;;
43311;SDS011;30041;48.300;16.352;2023-09-19T15:23:00;5.50;;;1.30;;
43311;SDS011;30041;48.300;16.352;2023-09-19T15:25:30;2.35;;;1.20;;
43311;SDS011;30041;48.300;16.352;2023-09-19T15:27:56;4.30;;;1.30;;
43311;SDS011;30041;48.300;16.352;2023-09-19T15:30:22;7.38;;;1.02;;
43311;SDS011;30041;48.300;16.352;2023-09-19T15:32:48;4.57;;;1.15;;
43311;SDS011;30041;48.300;16.352;2023-09-19T15:35:15;2.83;;;1.23;;
43311;SDS011;30041;48.300;16.352;2023-09-19T15:37:42;2.38;;;1.23;;
43311;SDS011;30041;48.300;16.352;2023-09-19T15:40:12;2.58;;;1.10;;
43311;SDS011;30041;48.300;16.352;2023-09-19T15:42:38;4.45;;;1.70;;
43311;SDS011;30041;48.300;16.352;2023-09-19T15:45:04;3.90;;;1.30;;
43311;SDS011;30041;48.300;16.352;2023-09-19T15:47:30;3.95;;;1.30;;
43311;SDS011;30041;48.300;16.352;2023-09-19T15:49:56;5.95;;;1.30;;
43311;SDS011;30041;48.300;16.352;2023-09-19T15:52:26;2.97;;;1.23;;
43311;SDS011;30041;48.300;16.352;2023-09-19T15:54:53;3.20;;;1.30;;
43311;SDS011;30041;48.300;16.352;2023-09-19T15:57:19;2.40;;;1.35;;
43311;SDS011;30041;48.300;16.352;2023-09-19T15:59:46;2.22;;;1.15;;
43311;SDS011;30041;48.300;16.352;2023-09-19T16:02:15;3.58;;;1.30;;
43311;SDS011;30041;48.300;16.352;2023-09-19T16:04:41;4.13;;;1.30;;
43311;SDS011;30041;48.300;16.352;2023-09-19T16:07:07;3.25;;;1.30;;
43311;SDS011;30041;48.300;16.352;2023-09-19T16:09:33;2.38;;;1.20;;
43311;SDS011;30041;48.300;16.352;2023-09-19T16:12:00;3.83;;;1.20;;
43311;SDS011;30041;48.300;16.352;2023-09-19T16:14:26;3.55;;;1.40;;
43311;SDS011;30041;48.300;16.352;2023-09-19T16:16:53;2.80;;;1.20;;
43311;SDS011;30041;48.300;16.352;2023-09-19T16:19:19;3.05;;;1.27;;
43311;SDS011;30041;48.300;16.352;2023-09-19T16:21:45;2.65;;;1.42;;
43311;SDS011;30041;48.300;16.352;2023-09-19T16:24:12;5.15;;;2.40;;
43311;SDS011;30041;48.300;16.352;2023-09-19T16:26:38;5.20;;;2.25;;